createdAt,value
2023-01-21T00:00:57.535Z,0.83
2023-01-21T00:01:57.530Z,0.84
2023-01-21T00:02:57.486Z,0.81
2023-01-21T00:03:57.499Z,0.81
2023-01-21T00:04:57.453Z,0.83
2023-01-21T00:05:57.439Z,0.84
2023-01-21T00:06:57.469Z,0.87
2023-01-21T00:07:57.432Z,0.91
2023-01-21T00:08:57.432Z,0.88
2023-01-21T00:09:57.395Z,0.91
2023-01-21T00:10:57.385Z,0.88
2023-01-21T00:11:57.400Z,0.86
2023-01-21T00:12:57.347Z,0.87
2023-01-21T00:13:57.332Z,0.87
2023-01-21T00:15:00.357Z,0.84
2023-01-21T00:16:00.428Z,0.88
2023-01-21T00:16:57.324Z,0.87
2023-01-21T00:17:57.291Z,0.91
2023-01-21T00:18:57.309Z,0.92
2023-01-21T00:19:57.254Z,0.96
2023-01-21T00:20:57.250Z,0.99
2023-01-21T00:21:57.249Z,1.01
2023-01-21T00:22:57.225Z,1.02
2023-01-21T00:23:57.247Z,1.02
2023-01-21T00:24:57.196Z,1.01
2023-01-21T00:25:57.182Z,0.99
2023-01-21T00:26:57.162Z,0.96
2023-01-21T00:27:57.153Z,0.92
2023-01-21T00:28:57.204Z,0.88
2023-01-21T00:29:57.122Z,0.88
2023-01-21T00:30:57.145Z,0.87
2023-01-21T00:31:57.156Z,0.84
2023-01-21T00:32:57.084Z,0.87
2023-01-21T00:33:57.062Z,0.88
2023-01-21T00:35:00.091Z,0.87
2023-01-21T00:36:00.090Z,0.88
2023-01-21T00:36:57.045Z,0.84
2023-01-21T00:37:57.015Z,0.87
2023-01-21T00:38:57.031Z,0.86
2023-01-21T00:39:56.986Z,0.86
2023-01-21T00:40:56.973Z,0.84
2023-01-21T00:41:56.963Z,0.83
2023-01-21T00:42:56.946Z,0.83
2023-01-21T00:43:57.025Z,0.83
2023-01-21T00:44:56.925Z,0.83
2023-01-21T00:45:56.969Z,0.84
2023-01-21T00:46:56.901Z,0.84
2023-01-21T00:47:56.890Z,0.84
2023-01-21T00:48:56.869Z,0.83
2023-01-21T00:49:56.885Z,0.86
2023-01-21T00:50:56.885Z,0.86
2023-01-21T00:51:56.856Z,0.87
2023-01-21T00:52:56.826Z,0.87
2023-01-21T00:53:56.809Z,0.87
2023-01-21T00:54:59.804Z,0.87
2023-01-21T00:55:59.804Z,0.88
2023-01-21T00:56:56.810Z,0.88
2023-01-21T00:57:56.749Z,0.88
2023-01-21T00:58:56.747Z,0.91
2023-01-21T00:59:56.730Z,0.88
2023-01-21T01:00:56.716Z,0.87
2023-01-21T01:01:56.697Z,0.87
2023-01-21T01:02:56.741Z,0.88
2023-01-21T01:03:56.658Z,0.88
2023-01-21T01:04:56.676Z,0.91
2023-01-21T01:05:56.640Z,0.88
2023-01-21T01:06:56.660Z,0.91
2023-01-21T01:07:56.610Z,0.92
2023-01-21T01:08:56.609Z,0.91
2023-01-21T01:09:56.591Z,0.91
2023-01-21T01:10:56.578Z,0.91
2023-01-21T01:11:56.610Z,0.91
2023-01-21T01:12:56.567Z,0.94
2023-01-21T01:13:56.531Z,0.92
2023-01-21T01:15:00.982Z,0.92
2023-01-21T01:15:59.536Z,0.94
2023-01-21T01:16:56.519Z,0.94
2023-01-21T01:17:56.511Z,0.94
2023-01-21T01:18:56.467Z,0.92
2023-01-21T01:19:56.449Z,0.94
2023-01-21T01:20:56.467Z,0.94
2023-01-21T01:21:56.475Z,0.92
2023-01-21T01:22:56.417Z,0.92
2023-01-21T01:23:56.410Z,0.92
2023-01-21T01:24:56.397Z,0.92
2023-01-21T01:25:56.373Z,0.91
2023-01-21T01:26:56.366Z,0.91
2023-01-21T01:27:56.398Z,0.91
2023-01-21T01:28:56.343Z,0.91
2023-01-21T01:29:56.331Z,0.92
2023-01-21T01:30:56.410Z,0.91
2023-01-21T01:31:56.301Z,0.94
2023-01-21T01:32:56.282Z,0.94
2023-01-21T01:33:56.309Z,0.92
2023-01-21T01:34:59.283Z,0.94
2023-01-21T01:35:59.263Z,0.94
2023-01-21T01:36:56.232Z,0.92
2023-01-21T01:37:56.222Z,0.92
2023-01-21T01:38:56.204Z,0.92
2023-01-21T01:39:56.204Z,0.92
2023-01-21T01:40:56.183Z,0.92
2023-01-21T01:41:56.167Z,0.94
2023-01-21T01:42:56.160Z,0.92
2023-01-21T01:43:56.193Z,0.94
2023-01-21T01:44:56.115Z,0.94
2023-01-21T01:45:56.093Z,0.94
2023-01-21T01:46:56.092Z,0.92
2023-01-21T01:47:56.073Z,0.92
2023-01-21T01:48:56.067Z,0.92
2023-01-21T01:49:56.075Z,0.88
2023-01-21T01:50:56.093Z,0.88
2023-01-21T01:51:56.023Z,0.88
2023-01-21T01:52:56.014Z,0.88
2023-01-21T01:53:56.009Z,0.91
2023-01-21T01:54:59.018Z,0.91
2023-01-21T01:55:59.022Z,0.92
2023-01-21T01:56:55.974Z,0.91
2023-01-21T01:57:55.977Z,0.88
2023-01-21T01:58:55.948Z,0.92
2023-01-21T01:59:55.925Z,0.92
2023-01-21T02:00:55.960Z,0.92
2023-01-21T02:01:55.911Z,0.91
2023-01-21T02:02:55.920Z,0.92
2023-01-21T02:03:55.899Z,0.91
2023-01-21T02:04:55.871Z,0.88
2023-01-21T02:05:55.848Z,0.88
2023-01-21T02:06:55.913Z,0.91
2023-01-21T02:07:55.808Z,0.92
2023-01-21T02:08:55.810Z,0.91
2023-01-21T02:09:55.777Z,0.88
2023-01-21T02:10:55.779Z,0.87
2023-01-21T02:11:55.755Z,0.87
2023-01-21T02:12:55.772Z,0.87
2023-01-21T02:13:55.761Z,0.86
2023-01-21T02:14:58.732Z,0.86
2023-01-21T02:15:58.778Z,0.87
2023-01-21T02:16:55.701Z,0.86
2023-01-21T02:17:55.697Z,0.86
2023-01-21T02:18:55.721Z,0.86
2023-01-21T02:19:55.663Z,0.86
2023-01-21T02:20:55.691Z,0.86
2023-01-21T02:21:55.623Z,0.86
2023-01-21T02:22:55.613Z,0.86
2023-01-21T02:23:55.603Z,0.87
2023-01-21T02:24:55.634Z,0.87
2023-01-21T02:25:55.582Z,0.87
2023-01-21T02:26:55.561Z,0.87
2023-01-21T02:27:55.564Z,0.87
2023-01-21T02:28:55.547Z,0.91
2023-01-21T02:29:55.601Z,0.87
2023-01-21T02:30:55.677Z,0.83
2023-01-21T02:31:55.526Z,0.83
2023-01-21T02:32:55.492Z,0.81
2023-01-21T02:33:55.478Z,0.80
2023-01-21T02:34:58.484Z,0.77
2023-01-21T02:35:58.453Z,0.74
2023-01-21T02:36:55.472Z,0.68
2023-01-21T02:37:55.417Z,0.63
2023-01-21T02:38:55.405Z,0.56
2023-01-21T02:39:55.385Z,0.49
2023-01-21T02:40:55.436Z,0.46
2023-01-21T02:41:55.416Z,0.39
2023-01-21T02:42:55.345Z,0.36
2023-01-21T02:43:55.326Z,0.31
2023-01-21T02:44:55.322Z,0.26
2023-01-21T02:45:55.323Z,0.22
2023-01-21T02:46:55.349Z,0.18
2023-01-21T02:47:55.316Z,0.15
2023-01-21T02:48:55.269Z,0.11
2023-01-21T02:49:55.250Z,0.08
2023-01-21T02:50:55.321Z,0.08
2023-01-21T02:51:55.226Z,0.05
2023-01-21T02:52:55.238Z,0.03
2023-01-21T02:53:55.197Z,0.00
2023-01-21T02:54:58.201Z,-0.03
2023-01-21T02:55:58.202Z,-0.03
2023-01-21T02:56:55.157Z,-0.07
2023-01-21T02:57:55.180Z,-0.13
2023-01-21T02:58:55.160Z,-0.13
2023-01-21T02:59:55.127Z,-0.15
2023-01-21T03:00:55.242Z,-0.17
2023-01-21T03:01:55.137Z,-0.21
2023-01-21T03:02:55.128Z,-0.26
2023-01-21T03:03:55.081Z,-0.28
2023-01-21T03:04:55.089Z,-0.31
2023-01-21T03:05:55.070Z,-0.35
2023-01-21T03:06:55.051Z,-0.38
2023-01-21T03:07:55.030Z,-0.39
2023-01-21T03:08:55.039Z,-0.41
2023-01-21T03:09:54.997Z,-0.44
2023-01-21T03:10:54.979Z,-0.44
2023-01-21T03:11:54.962Z,-0.49
2023-01-21T03:12:54.972Z,-0.50
2023-01-21T03:13:54.946Z,-0.54
2023-01-21T03:14:57.949Z,-0.56
2023-01-21T03:15:57.941Z,-0.57
2023-01-21T03:16:54.895Z,-0.59
2023-01-21T03:17:54.895Z,-0.56
2023-01-21T03:18:54.876Z,-0.57
2023-01-21T03:19:54.908Z,-0.54
2023-01-21T03:20:54.850Z,-0.52
2023-01-21T03:21:54.825Z,-0.52
2023-01-21T03:22:54.806Z,-0.50
2023-01-21T03:23:54.804Z,-0.52
2023-01-21T03:24:54.787Z,-0.50
2023-01-21T03:25:54.785Z,-0.52
2023-01-21T03:26:54.741Z,-0.50
2023-01-21T03:27:54.726Z,-0.47
2023-01-21T03:28:54.722Z,-0.47
2023-01-21T03:29:54.723Z,-0.46
2023-01-21T03:30:54.697Z,-0.46
2023-01-21T03:31:54.692Z,-0.44
2023-01-21T03:32:54.660Z,-0.43
2023-01-21T03:33:54.671Z,-0.41
2023-01-21T03:34:57.706Z,-0.41
2023-01-21T03:35:57.633Z,-0.41
2023-01-21T03:36:54.612Z,-0.41
2023-01-21T03:37:54.584Z,-0.43
2023-01-21T03:38:54.575Z,-0.43
2023-01-21T03:39:54.553Z,-0.43
2023-01-21T03:40:54.594Z,-0.46
2023-01-21T03:41:54.576Z,-0.43
2023-01-21T03:42:54.512Z,-0.38
2023-01-21T03:43:54.510Z,-0.36
2023-01-21T03:44:54.497Z,-0.36
2023-01-21T03:45:54.578Z,-0.36
2023-01-21T03:46:54.475Z,-0.35
2023-01-21T03:47:54.528Z,-0.35
2023-01-21T03:48:54.447Z,-0.34
2023-01-21T03:49:54.429Z,-0.34
2023-01-21T03:50:54.466Z,-0.34
2023-01-21T03:51:54.389Z,-0.32
2023-01-21T03:52:54.411Z,-0.29
2023-01-21T03:53:54.399Z,-0.29
2023-01-21T03:54:57.402Z,-0.28
2023-01-21T03:55:57.370Z,-0.28
2023-01-21T03:56:54.318Z,-0.28
2023-01-21T03:57:54.333Z,-0.26
2023-01-21T03:58:54.298Z,-0.29
2023-01-21T03:59:54.279Z,-0.28
2023-01-21T04:00:54.354Z,-0.31
2023-01-21T04:01:54.288Z,-0.34
2023-01-21T04:02:54.241Z,-0.36
2023-01-21T04:03:54.230Z,-0.38
2023-01-21T04:04:54.323Z,-0.43
2023-01-21T04:05:54.202Z,-0.47
2023-01-21T04:06:54.233Z,-0.49
2023-01-21T04:07:54.173Z,-0.52
2023-01-21T04:08:54.181Z,-0.53
2023-01-21T04:09:54.201Z,-0.56
2023-01-21T04:10:54.151Z,-0.62
2023-01-21T04:11:54.112Z,-0.62
2023-01-21T04:12:54.100Z,-0.70
2023-01-21T04:13:54.081Z,-0.68
2023-01-21T04:14:57.163Z,-0.68
2023-01-21T04:15:57.071Z,-0.71
2023-01-21T04:16:54.046Z,-0.74
2023-01-21T04:17:54.038Z,-0.75
2023-01-21T04:18:54.031Z,-0.78
2023-01-21T04:19:54.000Z,-0.80
2023-01-21T04:20:54.170Z,-0.78
2023-01-21T04:21:53.972Z,-0.80
2023-01-21T04:22:53.964Z,-0.80
2023-01-21T04:23:53.956Z,-0.80
2023-01-21T04:24:53.946Z,-0.80
2023-01-21T04:25:53.933Z,-0.82
2023-01-21T04:26:53.953Z,-0.80
2023-01-21T04:27:53.921Z,-0.80
2023-01-21T04:28:53.890Z,-0.78
2023-01-21T04:29:53.875Z,-0.83
2023-01-21T04:30:53.945Z,-0.86
2023-01-21T04:31:53.935Z,-0.89
2023-01-21T04:32:53.931Z,-0.91
2023-01-21T04:33:53.878Z,-0.93
2023-01-21T04:34:56.857Z,-0.96
2023-01-21T04:35:56.806Z,-1.01
2023-01-21T04:36:53.798Z,-0.99
2023-01-21T04:37:53.769Z,-0.99
2023-01-21T04:38:53.759Z,-1.01
2023-01-21T04:39:53.753Z,-1.02
2023-01-21T04:40:53.834Z,-1.01
2023-01-21T04:41:53.709Z,-1.02
2023-01-21T04:42:53.720Z,-1.02
2023-01-21T04:43:53.701Z,-1.02
2023-01-21T04:44:53.666Z,-1.02
2023-01-21T04:45:53.684Z,-1.02
2023-01-21T04:46:53.660Z,-1.02
2023-01-21T04:47:53.647Z,-1.05
2023-01-21T04:48:53.628Z,-1.07
2023-01-21T04:49:53.624Z,-1.08
2023-01-21T04:50:53.642Z,-1.08
2023-01-21T04:51:53.618Z,-1.11
2023-01-21T04:52:53.597Z,-1.12
2023-01-21T04:53:53.563Z,-1.15
2023-01-21T04:54:56.550Z,-1.15
2023-01-21T04:55:56.562Z,-1.17
2023-01-21T04:56:53.540Z,-1.20
2023-01-21T04:57:53.520Z,-1.20
2023-01-21T04:58:53.515Z,-1.20
2023-01-21T04:59:53.485Z,-1.25
2023-01-21T05:00:53.547Z,-1.27
2023-01-21T05:01:53.449Z,-1.32
2023-01-21T05:02:53.471Z,-1.33
2023-01-21T05:03:53.428Z,-1.40
2023-01-21T05:04:53.414Z,-1.38
2023-01-21T05:05:53.400Z,-1.40
2023-01-21T05:06:53.425Z,-1.43
2023-01-21T05:07:53.460Z,-1.44
2023-01-21T05:08:53.368Z,-1.44
2023-01-21T05:09:53.372Z,-1.48
2023-01-21T05:10:53.344Z,-1.53
2023-01-21T05:11:53.323Z,-1.54
2023-01-21T05:12:53.343Z,-1.54
2023-01-21T05:13:53.329Z,-1.54
2023-01-21T05:14:56.298Z,-1.54
2023-01-21T05:15:56.428Z,-1.54
2023-01-21T05:16:53.303Z,-1.56
2023-01-21T05:17:53.267Z,-1.58
2023-01-21T05:18:53.267Z,-1.58
2023-01-21T05:19:53.238Z,-1.58
2023-01-21T05:20:53.221Z,-1.59
2023-01-21T05:21:53.222Z,-1.58
2023-01-21T05:22:53.177Z,-1.61
2023-01-21T05:23:53.165Z,-1.59
2023-01-21T05:24:53.155Z,-1.61
2023-01-21T05:25:53.197Z,-1.61
2023-01-21T05:26:53.185Z,-1.59
2023-01-21T05:27:53.135Z,-1.58
2023-01-21T05:28:53.116Z,-1.53
2023-01-21T05:29:53.113Z,-1.50
2023-01-21T05:30:53.146Z,-1.44
2023-01-21T05:31:53.128Z,-1.41
2023-01-21T05:32:53.082Z,-1.37
2023-01-21T05:33:53.070Z,-1.35
2023-01-21T05:34:56.026Z,-1.35
2023-01-21T05:35:56.027Z,-1.33
2023-01-21T05:36:53.006Z,-1.33
2023-01-21T05:37:52.986Z,-1.33
2023-01-21T05:38:52.997Z,-1.32
2023-01-21T05:39:52.975Z,-1.30
2023-01-21T05:40:52.943Z,-1.29
2023-01-21T05:41:52.944Z,-1.25
2023-01-21T05:42:52.927Z,-1.26
2023-01-21T05:43:52.941Z,-1.23
2023-01-21T05:44:52.914Z,-1.19
2023-01-21T05:45:52.962Z,-1.17
2023-01-21T05:46:52.896Z,-1.11
2023-01-21T05:47:52.871Z,-1.08
2023-01-21T05:48:52.887Z,-1.04
2023-01-21T05:49:52.850Z,-1.01
2023-01-21T05:50:52.892Z,-0.99
2023-01-21T05:51:52.831Z,-0.97
2023-01-21T05:52:52.797Z,-0.97
2023-01-21T05:53:52.833Z,-0.99
2023-01-21T05:55:01.768Z,-0.94
2023-01-21T05:55:56.783Z,-0.94
2023-01-21T05:56:52.749Z,-0.94
2023-01-21T05:57:52.748Z,-0.91
2023-01-21T05:58:52.759Z,-0.89
2023-01-21T05:59:52.717Z,-0.86
2023-01-21T06:00:52.751Z,-0.83
2023-01-21T06:01:52.693Z,-0.82
2023-01-21T06:02:52.679Z,-0.78
2023-01-21T06:03:52.703Z,-0.78
2023-01-21T06:04:52.661Z,-0.75
2023-01-21T06:05:52.646Z,-0.75
2023-01-21T06:06:52.660Z,-0.74
2023-01-21T06:07:52.619Z,-0.71
2023-01-21T06:08:52.600Z,-0.68
2023-01-21T06:09:52.572Z,-0.72
2023-01-21T06:10:52.551Z,-0.70
2023-01-21T06:11:52.590Z,-0.68
2023-01-21T06:12:52.534Z,-0.65
2023-01-21T06:13:52.532Z,-0.68
2023-01-21T06:14:55.513Z,-0.67
2023-01-21T06:15:55.532Z,-0.68
2023-01-21T06:16:52.508Z,-0.70
2023-01-21T06:17:52.524Z,-0.71
2023-01-21T06:18:52.492Z,-0.71
2023-01-21T06:19:52.473Z,-0.68
2023-01-21T06:20:52.486Z,-0.70
2023-01-21T06:21:52.442Z,-0.67
2023-01-21T06:22:52.415Z,-0.62
2023-01-21T06:23:52.401Z,-0.61
2023-01-21T06:24:52.376Z,-0.54
2023-01-21T06:25:52.374Z,-0.49
2023-01-21T06:26:52.384Z,-0.46
2023-01-21T06:27:52.355Z,-0.43
2023-01-21T06:28:52.335Z,-0.41
2023-01-21T06:29:52.325Z,-0.41
2023-01-21T06:30:52.385Z,-0.39
2023-01-21T06:31:52.531Z,-0.39
2023-01-21T06:32:52.265Z,-0.39
2023-01-21T06:33:52.252Z,-0.36
2023-01-21T06:34:55.227Z,-0.28
2023-01-21T06:35:55.243Z,-0.25
2023-01-21T06:36:52.228Z,-0.21
2023-01-21T06:37:52.191Z,-0.17
2023-01-21T06:38:52.170Z,-0.13
2023-01-21T06:39:52.160Z,-0.10
2023-01-21T06:40:52.184Z,-0.03
2023-01-21T06:41:55.020Z,-0.02
2023-01-21T06:42:52.108Z,0.00
2023-01-21T06:43:52.099Z,0.01
2023-01-21T06:44:52.093Z,0.05
2023-01-21T06:45:52.110Z,0.05
2023-01-21T06:47:00.653Z,0.03
2023-01-21T06:47:53.091Z,0.00
2023-01-21T06:48:52.041Z,-0.07
2023-01-21T06:49:52.023Z,-0.13
2023-01-21T06:50:52.105Z,-0.17
2023-01-21T06:51:52.070Z,-0.21
2023-01-21T06:52:51.984Z,-0.26
2023-01-21T06:53:51.982Z,-0.26
2023-01-21T06:54:54.960Z,-0.26
2023-01-21T06:55:54.971Z,-0.28
2023-01-21T06:56:51.944Z,-0.23
2023-01-21T06:57:51.955Z,-0.17
2023-01-21T06:58:51.917Z,-0.08
2023-01-21T06:59:51.893Z,-0.03
2023-01-21T07:00:51.886Z,0.03
2023-01-21T07:01:51.880Z,0.04
2023-01-21T07:02:51.901Z,0.07
2023-01-21T07:03:51.853Z,0.08
2023-01-21T07:04:51.872Z,0.08
2023-01-21T07:05:51.801Z,0.12
2023-01-21T07:06:51.779Z,0.18
2023-01-21T07:07:51.833Z,0.18
2023-01-21T07:08:51.758Z,0.16
2023-01-21T07:09:51.745Z,0.21
2023-01-21T07:10:51.721Z,0.25
2023-01-21T07:11:51.712Z,0.28
2023-01-21T07:12:51.701Z,0.28
2023-01-21T07:13:51.742Z,0.26
2023-01-21T07:14:54.689Z,0.29
2023-01-21T07:15:54.709Z,0.31
2023-01-21T07:16:51.680Z,0.29
2023-01-21T07:17:51.672Z,0.34
2023-01-21T07:18:51.643Z,0.31
2023-01-21T07:19:51.653Z,0.29
2023-01-21T07:20:51.593Z,0.28
2023-01-21T07:21:51.576Z,0.31
2023-01-21T07:22:51.560Z,0.32
2023-01-21T07:23:51.557Z,0.29
2023-01-21T07:24:51.540Z,0.31
2023-01-21T07:25:51.557Z,0.31
2023-01-21T07:26:51.509Z,0.32
2023-01-21T07:27:51.512Z,0.31
2023-01-21T07:28:51.486Z,0.31
2023-01-21T07:29:51.476Z,0.26
2023-01-21T07:30:51.555Z,0.29
2023-01-21T07:31:51.555Z,0.28
2023-01-21T07:32:51.427Z,0.28
2023-01-21T07:33:51.415Z,0.26
2023-01-21T07:34:54.418Z,0.26
2023-01-21T07:35:54.434Z,0.26
2023-01-21T07:36:51.372Z,0.25
2023-01-21T07:37:51.402Z,0.25
2023-01-21T07:38:51.350Z,0.28
2023-01-21T07:39:53.132Z,0.25
2023-01-21T07:40:51.323Z,0.23
2023-01-21T07:41:51.304Z,0.25
2023-01-21T07:42:51.355Z,0.25
2023-01-21T07:43:51.292Z,0.26
2023-01-21T07:44:51.298Z,0.26
2023-01-21T07:45:51.273Z,0.26
2023-01-21T07:46:51.236Z,0.23
2023-01-21T07:47:51.235Z,0.25
2023-01-21T07:48:51.278Z,0.26
2023-01-21T07:49:51.205Z,0.26
2023-01-21T07:50:51.191Z,0.26
2023-01-21T07:51:51.188Z,0.25
2023-01-21T07:52:51.167Z,0.25
2023-01-21T07:53:51.164Z,0.26
2023-01-21T07:54:54.191Z,0.26
2023-01-21T07:55:54.168Z,0.26
2023-01-21T07:56:51.109Z,0.26
2023-01-21T07:57:51.095Z,0.25
2023-01-21T07:58:51.096Z,0.26
2023-01-21T07:59:51.069Z,0.29
2023-01-21T08:00:51.066Z,0.29
2023-01-21T08:01:51.118Z,0.28
2023-01-21T08:02:51.046Z,0.31
2023-01-21T08:03:51.081Z,0.31
2023-01-21T08:04:50.996Z,0.31
2023-01-21T08:05:50.987Z,0.34
2023-01-21T08:06:50.957Z,0.34
2023-01-21T08:07:50.948Z,0.37
2023-01-21T08:08:50.920Z,0.34
2023-01-21T08:09:50.951Z,0.39
2023-01-21T08:10:50.898Z,0.39
2023-01-21T08:11:50.928Z,0.40
2023-01-21T08:12:50.890Z,0.36
2023-01-21T08:13:50.896Z,0.36
2023-01-21T08:14:53.859Z,0.41
2023-01-21T08:15:53.891Z,0.39
2023-01-21T08:16:50.819Z,0.41
2023-01-21T08:17:50.870Z,0.43
2023-01-21T08:18:50.812Z,0.41
2023-01-21T08:19:50.788Z,0.41
2023-01-21T08:20:50.784Z,0.43
2023-01-21T08:21:50.772Z,0.46
2023-01-21T08:22:50.760Z,0.43
2023-01-21T08:23:50.763Z,0.37
2023-01-21T08:24:50.710Z,0.41
2023-01-21T08:25:50.692Z,0.41
2023-01-21T08:26:50.685Z,0.41
2023-01-21T08:27:50.672Z,0.41
2023-01-21T08:28:50.650Z,0.41
2023-01-21T08:29:50.700Z,0.41
2023-01-21T08:30:50.656Z,0.40
2023-01-21T08:31:50.678Z,0.43
2023-01-21T08:32:50.620Z,0.41
2023-01-21T08:33:50.588Z,0.44
2023-01-21T08:34:53.610Z,0.40
2023-01-21T08:35:53.590Z,0.43
2023-01-21T08:36:50.543Z,0.44
2023-01-21T08:37:50.547Z,0.41
2023-01-21T08:38:50.523Z,0.43
2023-01-21T08:39:50.516Z,0.44
2023-01-21T08:40:50.521Z,0.41
2023-01-21T08:41:50.481Z,0.49
2023-01-21T08:42:50.506Z,0.50
2023-01-21T08:43:50.469Z,0.47
2023-01-21T08:44:50.462Z,0.49
2023-01-21T08:45:50.455Z,0.49
2023-01-21T08:46:50.402Z,0.50
2023-01-21T08:47:50.410Z,0.52
2023-01-21T08:48:50.440Z,0.55
2023-01-21T08:49:50.370Z,0.56
2023-01-21T08:50:50.419Z,0.58
2023-01-21T08:51:50.350Z,0.59
2023-01-21T08:52:50.342Z,0.60
2023-01-21T08:53:50.329Z,0.59
2023-01-21T08:54:53.348Z,0.62
2023-01-21T08:55:53.296Z,0.60
2023-01-21T08:56:50.265Z,0.62
2023-01-21T08:57:50.251Z,0.62
2023-01-21T08:58:50.239Z,0.65
2023-01-21T08:59:50.224Z,0.66
2023-01-21T09:00:50.276Z,0.68
2023-01-21T09:01:50.256Z,0.73
2023-01-21T09:02:51.690Z,0.70
2023-01-21T09:03:50.165Z,0.74
2023-01-21T09:04:50.168Z,0.76
2023-01-21T09:05:50.216Z,0.76
2023-01-21T09:06:50.137Z,0.78
2023-01-21T09:07:50.138Z,0.78
2023-01-21T09:08:50.116Z,0.77
2023-01-21T09:09:50.102Z,0.81
2023-01-21T09:10:50.086Z,0.80
2023-01-21T09:11:50.115Z,0.83
2023-01-21T09:12:50.067Z,0.83
2023-01-21T09:13:50.037Z,0.84
2023-01-21T09:14:53.036Z,0.91
2023-01-21T09:15:53.027Z,0.92
2023-01-21T09:16:50.064Z,0.95
2023-01-21T09:17:50.017Z,0.95
2023-01-21T09:18:49.987Z,0.91
2023-01-21T09:19:49.979Z,0.95
2023-01-21T09:20:49.982Z,0.91
2023-01-21T09:21:49.966Z,0.99
2023-01-21T09:22:49.938Z,0.98
2023-01-21T09:23:49.998Z,0.99
2023-01-21T09:24:49.897Z,1.02
2023-01-21T09:25:49.891Z,1.08
2023-01-21T09:26:49.882Z,1.10
2023-01-21T09:27:49.862Z,1.17
2023-01-21T09:28:49.859Z,1.19
2023-01-21T09:29:49.907Z,1.24
2023-01-21T09:30:49.883Z,1.14
2023-01-21T09:31:49.835Z,1.08
2023-01-21T09:32:49.815Z,1.04
2023-01-21T09:33:49.791Z,1.06
2023-01-21T09:34:52.826Z,1.02
2023-01-21T09:35:52.788Z,0.92
2023-01-21T09:36:49.747Z,0.87
2023-01-21T09:37:49.725Z,0.88
2023-01-21T09:38:49.728Z,0.86
2023-01-21T09:39:49.714Z,0.87
2023-01-21T09:40:49.744Z,0.91
2023-01-21T09:41:49.695Z,1.01
2023-01-21T09:42:49.670Z,1.01
2023-01-21T09:43:49.646Z,1.06
2023-01-21T09:44:49.647Z,1.12
2023-01-21T09:45:49.630Z,1.12
2023-01-21T09:46:49.649Z,1.08
2023-01-21T09:47:49.615Z,1.01
2023-01-21T09:48:49.630Z,0.98
2023-01-21T09:49:49.586Z,0.98
2023-01-21T09:50:49.575Z,0.95
2023-01-21T09:51:52.276Z,0.92
2023-01-21T09:52:49.573Z,0.86
2023-01-21T09:53:49.516Z,0.87
2023-01-21T09:54:52.500Z,0.84
2023-01-21T09:55:52.500Z,0.92
2023-01-21T09:56:49.488Z,0.91
2023-01-21T09:57:49.462Z,0.94
2023-01-21T09:58:49.509Z,0.99
2023-01-21T09:59:49.436Z,1.01
2023-01-21T10:00:49.477Z,1.01
2023-01-21T10:01:49.399Z,1.04
2023-01-21T10:02:49.400Z,1.10
2023-01-21T10:03:49.382Z,1.08
2023-01-21T10:04:49.496Z,1.08
2023-01-21T10:05:49.359Z,1.14
2023-01-21T10:06:49.339Z,1.14
2023-01-21T10:07:49.325Z,1.16
2023-01-21T10:08:49.310Z,1.19
2023-01-21T10:09:49.301Z,1.14
2023-01-21T10:10:49.332Z,1.16
2023-01-21T10:11:49.274Z,1.20
2023-01-21T10:12:49.260Z,1.17
2023-01-21T10:13:49.248Z,1.14
2023-01-21T10:14:52.234Z,1.16
2023-01-21T10:15:52.260Z,1.16
2023-01-21T10:16:49.264Z,1.06
2023-01-21T10:17:49.199Z,1.06
2023-01-21T10:18:49.185Z,1.02
2023-01-21T10:19:49.177Z,0.91
2023-01-21T10:20:49.220Z,0.86
2023-01-21T10:21:49.191Z,0.84
2023-01-21T10:22:49.135Z,0.86
2023-01-21T10:23:49.115Z,0.84
2023-01-21T10:24:49.101Z,0.84
2023-01-21T10:25:49.107Z,0.83
2023-01-21T10:26:49.074Z,0.80
2023-01-21T10:27:49.116Z,0.80
2023-01-21T10:28:49.045Z,0.78
2023-01-21T10:29:49.035Z,0.80
2023-01-21T10:30:49.190Z,0.83
2023-01-21T10:31:49.175Z,0.91
2023-01-21T10:32:48.982Z,0.94
2023-01-21T10:33:49.020Z,0.98
2023-01-21T10:34:51.964Z,1.05
2023-01-21T10:35:51.964Z,1.06
2023-01-21T10:36:48.933Z,1.14
2023-01-21T10:37:48.928Z,1.16
2023-01-21T10:38:48.903Z,1.10
2023-01-21T10:39:48.936Z,1.08
2023-01-21T10:40:48.873Z,1.06
2023-01-21T10:41:48.873Z,0.99
2023-01-21T10:42:51.334Z,0.96
2023-01-21T10:43:48.833Z,1.01
2023-01-21T10:44:48.843Z,0.99
2023-01-21T10:45:48.901Z,1.01
2023-01-21T10:46:48.805Z,0.98
2023-01-21T10:47:48.779Z,0.99
2023-01-21T10:48:48.777Z,0.98
2023-01-21T10:49:48.769Z,0.94
2023-01-21T10:50:48.851Z,0.92
2023-01-21T10:51:48.788Z,0.98
2023-01-21T10:52:48.723Z,0.99
2023-01-21T10:53:48.702Z,1.01
2023-01-21T10:54:51.693Z,1.04
2023-01-21T10:55:51.685Z,1.04
2023-01-21T10:56:48.669Z,1.08
2023-01-21T10:57:48.688Z,1.10
2023-01-21T10:58:48.630Z,1.05
2023-01-21T10:59:48.625Z,1.02
2023-01-21T11:00:48.625Z,1.06
2023-01-21T11:01:48.596Z,1.08
2023-01-21T11:02:48.600Z,1.12
2023-01-21T11:03:48.597Z,1.16
2023-01-21T11:04:48.552Z,1.12
2023-01-21T11:05:50.013Z,1.17
2023-01-21T11:06:48.531Z,1.23
2023-01-21T11:07:48.542Z,1.26
2023-01-21T11:08:48.525Z,1.23
2023-01-21T11:09:48.485Z,1.17
2023-01-21T11:10:48.541Z,1.14
2023-01-21T11:11:48.469Z,1.19
2023-01-21T11:12:48.457Z,1.17
2023-01-21T11:13:48.434Z,1.19
2023-01-21T11:14:51.420Z,1.17
2023-01-21T11:15:51.481Z,1.23
2023-01-21T11:16:48.395Z,1.23
2023-01-21T11:17:48.405Z,1.30
2023-01-21T11:18:48.404Z,1.32
2023-01-21T11:19:48.352Z,1.38
2023-01-21T11:20:48.363Z,1.34
2023-01-21T11:21:48.431Z,1.34
2023-01-21T11:22:48.311Z,1.34
2023-01-21T11:23:48.302Z,1.34
2023-01-21T11:24:48.338Z,1.31
2023-01-21T11:25:48.274Z,1.37
2023-01-21T11:26:48.263Z,1.41
2023-01-21T11:27:48.261Z,1.48
2023-01-21T11:28:48.232Z,1.56
2023-01-21T11:29:48.223Z,1.60
2023-01-21T11:30:51.344Z,1.58
2023-01-21T11:31:48.245Z,1.63
2023-01-21T11:32:48.186Z,1.53
2023-01-21T11:33:48.162Z,1.52
2023-01-21T11:34:51.236Z,1.40
2023-01-21T11:35:51.164Z,1.40
2023-01-21T11:36:48.153Z,1.42
2023-01-21T11:37:48.197Z,1.53
2023-01-21T11:38:48.116Z,1.56
2023-01-21T11:39:48.103Z,1.56
2023-01-21T11:40:48.170Z,1.62
2023-01-21T11:41:48.138Z,1.70
2023-01-21T11:42:48.249Z,1.71
2023-01-21T11:43:48.074Z,1.76
2023-01-21T11:44:48.173Z,1.80
2023-01-21T11:45:48.018Z,1.91
2023-01-21T11:46:48.090Z,1.97
2023-01-21T11:47:48.007Z,1.99
2023-01-21T11:48:48.048Z,1.92
2023-01-21T11:49:48.079Z,1.88
2023-01-21T11:50:47.991Z,1.84
2023-01-21T11:51:47.940Z,1.80
2023-01-21T11:52:48.007Z,1.84
2023-01-21T11:53:47.932Z,1.88
2023-01-21T11:54:50.936Z,1.89
2023-01-21T11:55:50.906Z,1.78
2023-01-21T11:56:47.857Z,1.84
2023-01-21T11:57:47.850Z,1.85
2023-01-21T11:58:47.827Z,1.88
2023-01-21T11:59:47.833Z,1.88
2023-01-21T12:00:47.829Z,1.85
2023-01-21T12:01:48.563Z,1.92
2023-01-21T12:02:47.852Z,1.94
2023-01-21T12:03:47.850Z,1.99
2023-01-21T12:04:47.919Z,2.00
2023-01-21T12:05:47.739Z,2.00
2023-01-21T12:06:47.739Z,2.00
2023-01-21T12:07:47.706Z,2.04
2023-01-21T12:08:47.698Z,2.02
2023-01-21T12:09:47.684Z,2.08
2023-01-21T12:10:47.700Z,2.11
2023-01-21T12:11:47.667Z,2.14
2023-01-21T12:12:47.640Z,2.02
2023-01-21T12:13:47.647Z,1.99
2023-01-21T12:14:50.611Z,1.99
2023-01-21T12:15:50.762Z,2.04
2023-01-21T12:16:47.590Z,2.02
2023-01-21T12:17:47.572Z,1.99
2023-01-21T12:18:47.558Z,2.04
2023-01-21T12:19:47.548Z,2.11
2023-01-21T12:20:47.534Z,2.14
2023-01-21T12:21:47.545Z,2.14
2023-01-21T12:22:47.503Z,2.14
2023-01-21T12:23:47.494Z,2.15
2023-01-21T12:24:47.511Z,2.13
2023-01-21T12:25:47.466Z,2.10
2023-01-21T12:26:47.452Z,2.08
2023-01-21T12:27:47.433Z,2.13
2023-01-21T12:28:47.427Z,2.10
2023-01-21T12:29:47.447Z,2.07
2023-01-21T12:30:47.414Z,2.06
2023-01-21T12:31:47.457Z,2.04
2023-01-21T12:32:47.383Z,2.08
2023-01-21T12:33:47.354Z,2.08
2023-01-21T12:34:50.345Z,2.04
2023-01-21T12:35:50.349Z,2.06
2023-01-21T12:36:47.367Z,2.06
2023-01-21T12:37:47.295Z,2.07
2023-01-21T12:38:47.293Z,2.11
2023-01-21T12:39:47.276Z,2.11
2023-01-21T12:40:47.274Z,2.07
2023-01-21T12:41:47.252Z,2.08
2023-01-21T12:42:47.275Z,2.08
2023-01-21T12:43:47.223Z,2.08
2023-01-21T12:44:47.222Z,2.04
2023-01-21T12:45:47.196Z,2.06
2023-01-21T12:46:47.221Z,2.08
2023-01-21T12:47:47.196Z,2.06
2023-01-21T12:48:47.163Z,2.06
2023-01-21T12:49:47.168Z,2.07
2023-01-21T12:50:47.165Z,2.06
2023-01-21T12:51:47.126Z,2.08
2023-01-21T12:52:47.100Z,2.04
2023-01-21T12:53:47.128Z,2.02
2023-01-21T12:54:50.092Z,1.99
2023-01-21T12:55:50.094Z,2.00
2023-01-21T12:56:47.049Z,1.95
2023-01-21T12:57:47.053Z,1.88
2023-01-21T12:58:47.023Z,1.91
2023-01-21T12:59:47.082Z,1.95
2023-01-21T13:00:47.030Z,1.97
2023-01-21T13:01:47.033Z,2.00
2023-01-21T13:02:46.979Z,2.02
2023-01-21T13:03:46.961Z,2.08
2023-01-21T13:04:46.943Z,2.10
2023-01-21T13:05:46.966Z,2.07
2023-01-21T13:06:54.090Z,2.04
2023-01-21T13:07:47.916Z,1.99
2023-01-21T13:08:46.885Z,1.97
2023-01-21T13:09:46.901Z,1.92
2023-01-21T13:10:46.926Z,1.95